createdAt,value
2019-01-29T00:02:06.484Z,1.52
2019-01-29T00:04:38.549Z,1.52
2019-01-29T00:07:09.288Z,1.50
2019-01-29T00:09:41.478Z,1.48
2019-01-29T00:12:12.807Z,1.49
2019-01-29T00:14:43.644Z,1.52
2019-01-29T00:17:14.786Z,1.47
2019-01-29T00:19:52.225Z,1.51
2019-01-29T00:22:23.096Z,1.37
2019-01-29T00:24:54.025Z,1.40
2019-01-29T00:27:27.715Z,1.40
2019-01-29T00:29:59.199Z,1.33
2019-01-29T00:32:30.376Z,1.35
2019-01-29T00:35:05.736Z,1.31
2019-01-29T00:37:36.848Z,1.33
2019-01-29T00:40:08.505Z,1.33
2019-01-29T00:42:42.048Z,1.29
2019-01-29T00:45:13.517Z,1.30
2019-01-29T00:47:46.226Z,1.29
2019-01-29T00:50:18.783Z,1.31
2019-01-29T00:52:52.177Z,1.23
2019-01-29T00:55:23.259Z,1.24
2019-01-29T00:57:57.157Z,1.13
2019-01-29T01:00:28.999Z,1.08
2019-01-29T01:03:00.379Z,1.09
2019-01-29T01:05:31.478Z,0.97
2019-01-29T01:08:02.590Z,0.94
2019-01-29T01:10:33.659Z,0.79
2019-01-29T01:13:04.620Z,0.73
2019-01-29T01:15:35.789Z,0.64
2019-01-29T01:18:12.815Z,0.63
2019-01-29T01:20:44.360Z,0.58
2019-01-29T01:23:15.300Z,0.44
2019-01-29T01:25:46.129Z,0.40
2019-01-29T01:28:17.272Z,0.38
2019-01-29T01:30:48.080Z,0.41
2019-01-29T01:33:18.898Z,0.29
2019-01-29T01:35:49.791Z,0.42
2019-01-29T01:38:21.072Z,0.38
2019-01-29T01:40:51.780Z,0.41
2019-01-29T01:43:22.679Z,0.38
2019-01-29T01:45:53.644Z,0.48
2019-01-29T01:48:24.437Z,0.34
2019-01-29T01:50:56.040Z,0.27
2019-01-29T01:53:27.009Z,0.26
2019-01-29T01:55:59.259Z,0.29
2019-01-29T01:58:30.042Z,0.32
2019-01-29T02:01:01.882Z,0.42
2019-01-29T02:03:33.400Z,0.35
2019-01-29T02:06:05.881Z,0.33
2019-01-29T02:08:36.613Z,0.27
2019-01-29T02:11:08.120Z,0.30
2019-01-29T02:13:39.040Z,0.30
2019-01-29T02:16:10.239Z,0.35
2019-01-29T02:18:42.493Z,0.41
2019-01-29T02:21:13.402Z,0.32
2019-01-29T02:23:44.252Z,0.31
2019-01-29T02:26:15.650Z,0.30
2019-01-29T02:28:46.404Z,0.27
2019-01-29T02:31:17.623Z,0.30
2019-01-29T02:33:49.065Z,0.32
2019-01-29T02:36:19.914Z,0.41
2019-01-29T02:38:50.863Z,0.55
2019-01-29T02:41:21.815Z,0.62
2019-01-29T02:43:53.552Z,0.60
2019-01-29T02:46:24.449Z,0.56
2019-01-29T02:48:55.763Z,0.66
2019-01-29T02:51:26.475Z,0.56
2019-01-29T02:53:59.933Z,0.56
2019-01-29T02:56:30.403Z,0.64
2019-01-29T02:59:01.356Z,0.60
2019-01-29T03:01:33.236Z,0.61
2019-01-29T03:04:05.027Z,0.65
2019-01-29T03:06:36.419Z,0.71
2019-01-29T03:09:10.486Z,0.71
2019-01-29T03:11:41.768Z,0.67
2019-01-29T03:14:12.811Z,0.83
2019-01-29T03:16:43.588Z,0.74
2019-01-29T03:19:14.603Z,0.74
2019-01-29T03:21:45.545Z,0.69
2019-01-29T03:24:16.355Z,0.81
2019-01-29T03:26:47.122Z,0.77
2019-01-29T03:29:17.876Z,0.80
2019-01-29T03:31:48.737Z,0.90
2019-01-29T03:34:19.405Z,0.94
2019-01-29T03:36:50.235Z,0.97
2019-01-29T03:39:20.884Z,1.00
2019-01-29T03:41:51.608Z,0.97
2019-01-29T03:44:22.799Z,0.92
2019-01-29T03:46:53.547Z,0.95
2019-01-29T03:49:24.377Z,0.96
2019-01-29T03:51:55.056Z,0.95
2019-01-29T03:54:25.757Z,0.84
2019-01-29T03:56:56.729Z,0.85
2019-01-29T03:59:27.594Z,0.91
2019-01-29T04:01:58.448Z,0.95
2019-01-29T04:04:29.386Z,0.94
2019-01-29T04:07:00.120Z,0.91
2019-01-29T04:09:30.448Z,0.92
2019-01-29T04:12:00.763Z,0.88
2019-01-29T04:14:31.099Z,0.95
2019-01-29T04:17:01.417Z,0.94
2019-01-29T04:19:32.096Z,0.90
2019-01-29T04:22:02.492Z,0.94
2019-01-29T04:24:32.877Z,0.88
2019-01-29T04:27:07.366Z,0.89
2019-01-29T04:29:38.177Z,0.95
2019-01-29T04:32:09.488Z,0.92
2019-01-29T04:34:59.243Z,0.93
2019-01-29T04:37:27.380Z,0.99
2019-01-29T04:39:58.507Z,1.01
2019-01-29T04:42:29.287Z,0.99
2019-01-29T04:45:00.092Z,1.03
2019-01-29T04:47:30.739Z,1.04
2019-01-29T04:50:02.624Z,1.08
2019-01-29T04:52:33.298Z,1.14
2019-01-29T04:55:04.241Z,1.11
2019-01-29T04:57:35.619Z,1.16
2019-01-29T05:00:10.010Z,1.15
2019-01-29T05:02:40.331Z,1.13
2019-01-29T05:05:11.307Z,1.14
2019-01-29T05:07:41.613Z,1.18
2019-01-29T05:10:14.301Z,1.19
2019-01-29T05:12:45.730Z,1.11
2019-01-29T05:15:18.719Z,1.05
2019-01-29T05:17:49.370Z,1.05
2019-01-29T05:20:22.825Z,1.09
2019-01-29T05:22:56.970Z,1.07
2019-01-29T05:25:27.792Z,1.08
2019-01-29T05:27:58.609Z,1.10
2019-01-29T05:30:29.572Z,1.05
2019-01-29T05:33:02.613Z,1.02
2019-01-29T05:35:32.970Z,1.12
2019-01-29T05:38:07.086Z,1.16
2019-01-29T05:40:37.818Z,1.12
2019-01-29T05:43:08.589Z,1.05
2019-01-29T05:45:39.473Z,1.07
2019-01-29T05:48:10.972Z,1.05
2019-01-29T05:50:42.082Z,1.06
2019-01-29T05:53:12.702Z,1.05
2019-01-29T05:55:43.772Z,1.04
2019-01-29T05:58:15.033Z,1.11
2019-01-29T06:00:47.633Z,1.06
2019-01-29T06:03:18.653Z,1.11
2019-01-29T06:05:49.894Z,1.12
2019-01-29T06:08:20.713Z,1.16
2019-01-29T06:10:52.361Z,1.22
2019-01-29T06:13:23.342Z,1.15
2019-01-29T06:15:54.253Z,1.19
2019-01-29T06:18:25.072Z,1.23
2019-01-29T06:20:56.076Z,1.14
2019-01-29T06:23:27.205Z,1.17
2019-01-29T06:25:58.464Z,1.21
2019-01-29T06:28:30.131Z,1.14
2019-01-29T06:31:03.146Z,1.10
2019-01-29T06:33:34.445Z,1.16
2019-01-29T06:36:07.543Z,1.11
2019-01-29T06:38:47.480Z,1.13
2019-01-29T06:41:18.905Z,1.11
2019-01-29T06:43:50.033Z,1.06
2019-01-29T06:46:21.273Z,1.13
2019-01-29T06:48:53.948Z,1.15
2019-01-29T06:51:24.766Z,1.16
2019-01-29T06:53:58.389Z,1.20
2019-01-29T06:56:34.992Z,1.11
2019-01-29T06:59:06.767Z,1.15
2019-01-29T07:01:38.095Z,1.05
2019-01-29T07:04:12.584Z,1.11
2019-01-29T07:06:45.748Z,1.10
2019-01-29T07:09:17.649Z,1.24
2019-01-29T07:11:54.476Z,1.15
2019-01-29T07:14:26.290Z,1.13
2019-01-29T07:17:15.795Z,1.22
2019-01-29T07:19:50.502Z,1.26
2019-01-29T07:22:24.846Z,1.34
2019-01-29T07:24:59.856Z,1.38
2019-01-29T07:27:32.394Z,1.35
2019-01-29T07:30:03.755Z,1.42
2019-01-29T07:32:34.745Z,1.44
2019-01-29T07:35:07.835Z,1.47
2019-01-29T07:37:38.977Z,1.54
2019-01-29T07:40:11.536Z,1.44
2019-01-29T07:42:46.757Z,1.53
2019-01-29T07:45:23.045Z,1.52
2019-01-29T07:48:00.591Z,1.50
2019-01-29T07:50:31.239Z,1.52
2019-01-29T07:53:01.458Z,1.47
2019-01-29T07:55:31.724Z,1.48
2019-01-29T07:58:02.144Z,1.46
2019-01-29T08:00:45.089Z,1.49
2019-01-29T08:03:15.336Z,1.49
2019-01-29T08:05:46.517Z,1.58
2019-01-29T08:08:20.726Z,1.62
2019-01-29T08:10:52.656Z,1.77
2019-01-29T08:13:23.398Z,2.21
2019-01-29T08:15:54.180Z,3.22
2019-01-29T08:18:24.907Z,3.48
2019-01-29T08:20:55.946Z,3.79
2019-01-29T08:23:26.630Z,3.89
2019-01-29T08:25:57.377Z,3.67
2019-01-29T08:28:30.200Z,3.45
2019-01-29T08:31:00.948Z,3.14
2019-01-29T08:33:32.583Z,3.01
2019-01-29T08:36:06.720Z,3.01
2019-01-29T08:38:37.440Z,3.47
2019-01-29T08:41:08.500Z,3.93
2019-01-29T08:43:39.562Z,4.72
2019-01-29T08:46:10.803Z,4.73
2019-01-29T08:48:42.021Z,4.66
2019-01-29T08:51:13.156Z,4.30
2019-01-29T08:53:44.280Z,3.98
2019-01-29T08:56:21.139Z,3.44
2019-01-29T08:58:52.261Z,3.38
2019-01-29T09:01:22.871Z,3.27
2019-01-29T09:03:53.749Z,3.14
2019-01-29T09:06:26.664Z,3.11
2019-01-29T09:08:57.480Z,3.01
2019-01-29T09:11:28.154Z,3.04
2019-01-29T09:14:01.613Z,2.94
2019-01-29T09:16:32.493Z,3.18
2019-01-29T09:19:03.331Z,3.28
2019-01-29T09:21:34.012Z,3.35
2019-01-29T09:24:04.766Z,3.27
2019-01-29T09:26:35.561Z,3.22
2019-01-29T09:29:06.656Z,3.27
2019-01-29T09:31:37.390Z,3.36
2019-01-29T09:34:08.250Z,3.33
2019-01-29T09:36:39.399Z,3.38
2019-01-29T09:39:12.480Z,3.39
2019-01-29T09:41:43.142Z,3.20
2019-01-29T09:44:17.032Z,3.22
2019-01-29T09:46:47.966Z,3.33
2019-01-29T09:49:18.792Z,3.34
2019-01-29T09:51:49.674Z,3.53
2019-01-29T09:54:20.454Z,3.61
2019-01-29T09:56:51.572Z,3.66
2019-01-29T09:59:24.423Z,3.82
2019-01-29T10:01:55.311Z,3.77
2019-01-29T10:04:26.817Z,3.53
2019-01-29T10:06:57.803Z,3.73
2019-01-29T10:09:28.741Z,3.69
2019-01-29T10:12:02.253Z,3.58
2019-01-29T10:14:33.334Z,3.61
2019-01-29T10:17:04.386Z,3.56
2019-01-29T10:19:34.773Z,3.69
2019-01-29T10:22:05.200Z,3.80
2019-01-29T10:24:35.568Z,3.85
2019-01-29T10:27:05.976Z,3.69
2019-01-29T10:29:36.469Z,3.64
2019-01-29T10:32:06.976Z,3.69
2019-01-29T10:34:37.392Z,3.96
2019-01-29T10:37:07.790Z,3.97
2019-01-29T10:39:38.190Z,3.91
2019-01-29T10:42:08.623Z,3.96
2019-01-29T10:44:39.181Z,3.97
2019-01-29T10:47:11.326Z,4.12
2019-01-29T10:49:43.163Z,3.99
2019-01-29T10:52:14.555Z,4.02
2019-01-29T10:54:45.983Z,4.01
2019-01-29T10:57:19.097Z,4.02
2019-01-29T10:59:55.115Z,4.19
2019-01-29T11:02:28.857Z,4.23
2019-01-29T11:05:00.098Z,4.25
2019-01-29T11:07:36.446Z,4.52
2019-01-29T11:10:12.057Z,4.54
2019-01-29T11:12:44.687Z,4.52
2019-01-29T11:15:27.008Z,4.66
2019-01-29T11:18:04.206Z,4.72
2019-01-29T11:20:36.576Z,4.89
2019-01-29T11:23:09.004Z,5.03
2019-01-29T11:25:42.286Z,4.99
2019-01-29T11:28:16.846Z,4.95
2019-01-29T11:30:48.597Z,4.72
2019-01-29T11:33:19.767Z,4.43
2019-01-29T11:35:53.564Z,4.39
2019-01-29T11:38:26.635Z,4.43
2019-01-29T11:40:58.625Z,4.42
2019-01-29T11:43:29.956Z,4.07
2019-01-29T11:46:08.446Z,4.08
2019-01-29T11:48:41.985Z,4.38
2019-01-29T11:51:15.865Z,4.35
2019-01-29T11:53:47.687Z,4.57
2019-01-29T11:56:21.907Z,4.41
2019-01-29T11:59:07.603Z,4.28
2019-01-29T12:01:42.344Z,4.22
2019-01-29T12:04:13.799Z,4.36
2019-01-29T12:06:45.265Z,4.23
2019-01-29T12:09:21.129Z,4.41
2019-01-29T12:12:10.760Z,4.53
2019-01-29T12:14:57.408Z,4.59
2019-01-29T12:17:43.953Z,4.78
2019-01-29T12:20:15.288Z,4.66
2019-01-29T12:22:45.536Z,4.89
2019-01-29T12:25:16.235Z,5.05
2019-01-29T12:27:48.337Z,5.26
2019-01-29T12:30:20.907Z,5.12
2019-01-29T12:32:51.650Z,5.20
2019-01-29T12:35:23.743Z,4.91
2019-01-29T12:38:24.809Z,4.92
2019-01-29T12:41:12.973Z,4.85
2019-01-29T12:44:21.441Z,5.12
2019-01-29T12:46:42.250Z,4.92
2019-01-29T12:49:12.033Z,4.90
2019-01-29T12:54:42.080Z,5.11
2019-01-29T12:57:20.692Z,5.31
2019-01-29T12:59:51.539Z,5.55
2019-01-29T13:02:21.858Z,5.49
2019-01-29T13:04:52.287Z,5.52
2019-01-29T13:07:33.128Z,5.44
2019-01-29T13:10:29.981Z,5.43
2019-01-29T13:13:07.384Z,5.38
2019-01-29T13:15:44.552Z,5.59
2019-01-29T13:18:19.006Z,5.95
2019-01-29T13:20:55.733Z,5.87
2019-01-29T13:23:39.932Z,6.24
2019-01-29T13:26:10.974Z,6.19
2019-01-29T13:28:51.382Z,5.64
2019-01-29T13:31:26.351Z,5.50
2019-01-29T13:34:07.823Z,5.37
2019-01-29T13:36:38.241Z,5.12
2019-01-29T13:39:14.226Z,5.25
2019-01-29T13:41:47.881Z,5.34
2019-01-29T13:44:34.185Z,5.23
2019-01-29T13:47:05.642Z,5.41
2019-01-29T13:49:53.794Z,5.29
2019-01-29T13:52:18.164Z,5.22
2019-01-29T13:54:53.906Z,4.88
2019-01-29T13:57:34.853Z,4.96
2019-01-29T14:00:12.783Z,4.93
2019-01-29T14:02:49.800Z,5.17
2019-01-29T14:05:24.461Z,5.26
2019-01-29T14:08:06.103Z,5.24
2019-01-29T14:10:45.574Z,5.19
2019-01-29T14:13:21.314Z,5.07
2019-01-29T14:15:59.652Z,4.87
2019-01-29T14:18:44.697Z,4.72
2019-01-29T14:21:26.251Z,4.69
2019-01-29T14:24:03.938Z,4.72
2019-01-29T14:26:47.558Z,4.48
2019-01-29T14:29:22.920Z,4.42
2019-01-29T14:32:04.819Z,4.24
2019-01-29T14:34:39.925Z,4.19
2019-01-29T14:37:16.114Z,4.17
2019-01-29T14:40:23.127Z,4.10
2019-01-29T14:42:58.464Z,4.03
2019-01-29T14:45:40.838Z,3.94
2019-01-29T14:48:20.681Z,3.94
2019-01-29T14:50:51.668Z,3.84
2019-01-29T14:53:21.990Z,3.89
2019-01-29T14:55:52.279Z,3.93
2019-01-29T14:58:22.676Z,3.96
2019-01-29T15:00:53.390Z,4.00
2019-01-29T15:03:23.722Z,3.99
2019-01-29T15:05:54.046Z,4.08
2019-01-29T15:08:24.583Z,4.03
2019-01-29T15:10:54.921Z,4.03
2019-01-29T15:13:25.293Z,3.99
2019-01-29T15:16:11.018Z,3.95
2019-01-29T15:19:11.670Z,3.89
2019-01-29T15:21:56.540Z,3.84
2019-01-29T15:24:59.621Z,3.83
2019-01-29T15:27:26.549Z,3.80
2019-01-29T15:30:35.853Z,3.70
2019-01-29T15:33:40.867Z,3.63
2019-01-29T15:36:44.144Z,3.56
2019-01-29T15:38:58.552Z,3.45
2019-01-29T15:41:28.945Z,3.42
2019-01-29T15:43:59.313Z,3.31
2019-01-29T15:46:29.695Z,3.23
2019-01-29T15:49:01.426Z,3.11
2019-01-29T15:51:32.445Z,3.01
2019-01-29T15:54:02.885Z,2.94
2019-01-29T15:56:33.394Z,2.85
2019-01-29T15:59:03.794Z,2.77
2019-01-29T16:01:34.627Z,2.74
2019-01-29T16:04:05.007Z,2.70
2019-01-29T16:06:35.352Z,2.65
2019-01-29T16:09:56.579Z,2.61
2019-01-29T16:12:50.402Z,2.52
2019-01-29T16:15:31.632Z,2.44
2019-01-29T16:18:32.212Z,2.39
2019-01-29T16:21:25.242Z,2.23
2019-01-29T16:24:44.231Z,2.09
2019-01-29T16:27:51.940Z,1.90
2019-01-29T16:30:25.597Z,1.64
2019-01-29T16:33:21.405Z,1.49
2019-01-29T16:36:06.344Z,1.33
2019-01-29T16:42:10.350Z,1.09
2019-01-29T16:45:09.103Z,0.93
2019-01-29T16:47:43.174Z,0.90
2019-01-29T16:50:57.721Z,0.82
2019-01-29T16:53:55.631Z,0.72
2019-01-29T16:56:37.614Z,0.65
2019-01-29T16:59:29.365Z,0.64
2019-01-29T17:02:14.883Z,0.56
2019-01-29T17:05:15.574Z,0.42
2019-01-29T17:07:59.813Z,0.33
2019-01-29T17:10:30.129Z,0.27
2019-01-29T17:13:00.465Z,0.23
2019-01-29T17:15:31.436Z,0.17
2019-01-29T17:18:02.042Z,0.13
2019-01-29T17:20:37.966Z,0.09
2019-01-29T17:23:38.266Z,0.06
2019-01-29T17:30:03.872Z,-0.03
2019-01-29T17:33:25.194Z,0.09
2019-01-29T17:39:26.923Z,0.20
2019-01-29T17:44:56.855Z,0.12
2019-01-29T17:47:27.637Z,0.05
2019-01-29T17:49:57.990Z,0.12
2019-01-29T17:52:28.386Z,0.04
2019-01-29T17:54:58.847Z,0.08
2019-01-29T17:57:29.374Z,0.05
2019-01-29T17:59:59.813Z,-0.04
2019-01-29T18:02:30.933Z,-0.07
2019-01-29T18:05:01.332Z,-0.05
2019-01-29T18:07:31.954Z,-0.06
2019-01-29T18:10:03.064Z,-0.09
2019-01-29T18:12:33.446Z,-0.04
2019-01-29T18:15:03.844Z,-0.08
2019-01-29T18:17:34.213Z,-0.10
2019-01-29T18:23:19.447Z,-0.03
2019-01-29T18:26:05.885Z,-0.16
2019-01-29T18:29:06.129Z,-0.05
2019-01-29T18:31:48.229Z,-0.08
2019-01-29T18:34:55.840Z,-0.07
2019-01-29T18:37:34.190Z,-0.04
2019-01-29T18:40:04.653Z,-0.06
2019-01-29T18:42:34.984Z,-0.08
2019-01-29T18:45:05.953Z,-0.10
2019-01-29T18:47:36.452Z,-0.16
2019-01-29T18:50:14.714Z,-0.13
2019-01-29T18:52:45.291Z,-0.22
2019-01-29T18:55:15.878Z,-0.29
2019-01-29T18:57:47.055Z,-0.24
2019-01-29T19:00:22.364Z,-0.31
2019-01-29T19:02:52.750Z,-0.36
2019-01-29T19:05:24.473Z,-0.30
2019-01-29T19:07:54.768Z,-0.34
2019-01-29T19:10:25.271Z,-0.32
2019-01-29T19:12:55.621Z,-0.40
2019-01-29T19:15:26.477Z,-0.37
2019-01-29T19:31:23.250Z,-0.58
2019-01-29T19:33:53.919Z,-0.57
2019-01-29T19:36:24.501Z,-0.65
2019-01-29T19:38:55.293Z,-0.70
2019-01-29T19:41:26.015Z,-0.73
2019-01-29T19:43:56.743Z,-0.75
2019-01-29T19:46:27.475Z,-0.80
2019-01-29T19:53:19.668Z,-0.77
2019-01-29T19:56:21.194Z,-0.82
2019-01-29T20:07:23.200Z,-0.84
2019-01-29T20:21:42.860Z,-0.99
2019-01-29T20:24:13.658Z,-1.02
2019-01-29T20:26:44.311Z,-0.91
2019-01-29T20:29:15.100Z,-0.85
2019-01-29T20:31:45.822Z,-0.87
2019-01-29T20:34:16.513Z,-0.91
2019-01-29T20:36:47.199Z,-0.96
2019-01-29T20:39:17.799Z,-1.00
2019-01-29T20:41:48.547Z,-1.03
2019-01-29T20:48:00.686Z,-1.07
2019-01-29T20:53:36.301Z,-1.13
2019-01-29T20:56:07.214Z,-1.17
2019-01-29T20:58:37.604Z,-1.22
2019-01-29T21:01:08.008Z,-1.24
2019-01-29T21:03:38.275Z,-1.27
2019-01-29T21:14:48.966Z,-1.32
2019-01-29T21:20:10.717Z,-1.44
2019-01-29T21:38:20.546Z,-1.53
2019-01-29T21:44:13.547Z,-1.51
2019-01-29T21:47:32.538Z,-1.52
2019-01-29T21:55:37.445Z,-1.50
2019-01-29T21:58:08.404Z,-1.50
2019-01-29T22:11:23.118Z,-1.54
2019-01-29T22:13:53.526Z,-1.62
2019-01-29T22:23:12.914Z,-1.51
2019-01-29T22:25:43.284Z,-1.46
2019-01-29T22:28:13.594Z,-1.47
2019-01-29T22:30:44.637Z,-1.46
2019-01-29T22:33:15.050Z,-1.42
2019-01-29T22:35:45.472Z,-1.47
2019-01-29T22:38:15.966Z,-1.43
2019-01-29T22:40:46.378Z,-1.44
2019-01-29T22:43:16.855Z,-1.29
2019-01-29T22:45:47.201Z,-1.23
2019-01-29T22:48:17.884Z,-1.27
2019-01-29T22:50:48.472Z,-1.25
2019-01-29T22:53:18.970Z,-1.20
2019-01-29T22:55:49.287Z,-1.20
2019-01-29T22:58:19.623Z,-1.20
2019-01-29T23:08:54.032Z,-1.24
2019-01-29T23:11:24.304Z,-1.27
2019-01-29T23:13:54.808Z,-1.35
2019-01-29T23:16:25.237Z,-1.38
2019-01-29T23:18:55.702Z,-1.38
2019-01-29T23:21:26.178Z,-1.37
2019-01-29T23:23:56.540Z,-1.42
2019-01-29T23:27:31.681Z,-1.43
2019-01-29T23:37:55.553Z,-1.40
2019-01-29T23:40:25.863Z,-1.40
2019-01-29T23:42:56.121Z,-1.36
2019-01-29T23:46:37.708Z,-1.32
2019-01-29T23:58:24.726Z,-1.50
